Wyeville, Wisconsin
Current Conditions -  °F | °C
As of 5:15 AM on Sunday 21 Dec 2014 (Local Time) from KCMY Reporting Station
Haze Haze  
Wind Chill: 26°   Ceiling: 800
Heat Index: 32°   Visibility: 4mi
Dew Point: 29°   Wind: 6mph
Humidity: 90%   Direction: 160°SSE
Pressure: 30.08"   Gusts: NA
Location:  44.0237°N, 90.4921°W
Report Text: KCMY 211115Z AUTO 16005KT 4SM BR OVC008 00/M01 A3008 RMK AO2 T10011015
Loading
Personal Weather Stations






























Interactive Weather Map New forecast layout! Learn more

10-Day Weather Forecast

Advertisements
Track Severe Weather on mobile